createdAt,value
2023-02-22T00:07:04.880Z,6.4
2023-02-22T00:17:07.711Z,6.4
2023-02-22T00:27:10.445Z,5.8
2023-02-22T00:37:13.135Z,6.5
2023-02-22T00:47:16.104Z,6.4
2023-02-22T00:57:18.580Z,5.9
2023-02-22T01:07:21.251Z,5.7
2023-02-22T01:17:23.968Z,6.3
2023-02-22T01:27:26.658Z,5.8
2023-02-22T01:37:29.338Z,5.4
2023-02-22T01:47:31.996Z,6.1
2023-02-22T01:57:34.572Z,6.4
2023-02-22T02:07:37.354Z,5.5
2023-02-22T02:17:39.968Z,5
2023-02-22T02:27:42.712Z,5.9
2023-02-22T02:37:45.297Z,5.8
2023-02-22T02:47:48.023Z,5.4
2023-02-22T02:57:50.373Z,5
2023-02-22T03:08:07.961Z,5.4
2023-02-22T03:18:09.542Z,5.3
2023-02-22T03:28:11.125Z,5.2
2023-02-22T03:38:12.571Z,5.1
2023-02-22T03:48:14.042Z,4.9
2023-02-22T03:58:15.357Z,5.1
2023-02-22T04:08:17.627Z,5.6
2023-02-22T04:18:19.821Z,5.6
2023-02-22T04:28:21.555Z,1.6
2023-02-22T04:38:23.486Z,5.6
2023-02-22T04:48:25.365Z,5.7
2023-02-22T04:58:27.007Z,3.3
2023-02-22T05:08:28.329Z,5.1
2023-02-22T05:18:29.421Z,5.3
2023-02-22T05:28:29.795Z,3.5
2023-02-22T05:38:30.786Z,3.4
2023-02-22T05:48:32.144Z,4.6
2023-02-22T05:58:36.640Z,3.8
2023-02-22T06:08:56.922Z,-7.3
2023-02-22T06:19:16.955Z,-5.7
2023-02-22T06:29:38.160Z,-9
2023-02-22T06:40:04.771Z,-5.9
2023-02-22T06:50:22.121Z,-6
2023-02-22T07:00:45.278Z,-3.3
2023-02-22T07:11:05.957Z,-5.6
2023-02-22T07:21:24.106Z,-11.1
2023-02-22T07:31:41.577Z,13.5
2023-02-22T07:42:00.299Z,14.7
2023-02-22T07:52:18.739Z,18.8
2023-02-22T08:02:35.128Z,16.7
2023-02-22T08:12:50.336Z,20.5
2023-02-22T08:23:06.272Z,25.6
2023-02-22T08:33:22.069Z,34.4
2023-02-22T08:43:38.048Z,13.7
2023-02-22T08:53:57.655Z,32.3
2023-02-22T09:08:25.227Z,32.1
2023-02-22T09:18:44.421Z,34.8
2023-02-22T09:29:00.204Z,33.8
2023-02-22T09:39:19.956Z,35.1
2023-02-22T09:49:39.449Z,33.9
2023-02-22T10:00:00.067Z,33.9
2023-02-22T10:10:20.975Z,34.9
2023-02-22T10:20:42.679Z,35.8
2023-02-22T10:30:59.844Z,34.6
2023-02-22T10:41:16.348Z,36.1
2023-02-22T10:51:35.565Z,36.8
2023-02-22T11:01:56.547Z,35.6
2023-02-22T11:12:12.434Z,43.4
2023-02-22T11:22:32.000Z,25.2
2023-02-22T11:32:51.006Z,32.9
2023-02-22T11:43:13.755Z,36.1
2023-02-22T11:53:29.663Z,19.4
2023-02-22T12:03:47.260Z,20.1
2023-02-22T12:13:58.423Z,14.7
2023-02-22T12:24:05.448Z,10.1
2023-02-22T12:34:10.281Z,11.7
2023-02-22T12:44:14.581Z,11.4
2023-02-22T12:54:18.946Z,11.1
2023-02-22T13:04:23.688Z,10.9
2023-02-22T13:14:26.941Z,10.6
2023-02-22T13:24:30.809Z,8.2
2023-02-22T13:34:35.040Z,9.9
2023-02-22T13:44:39.211Z,9.4
2023-02-22T13:54:43.451Z,9.1
2023-02-22T14:04:47.755Z,8
2023-02-22T14:14:48.943Z,6.9
2023-02-22T14:24:51.255Z,16.5
2023-02-22T14:34:53.496Z,6.9
2023-02-22T14:44:57.869Z,7.6
2023-02-22T14:55:01.937Z,6
2023-02-22T15:08:09.943Z,7.1
2023-02-22T15:18:14.284Z,6.9
2023-02-22T15:28:18.252Z,5.1
2023-02-22T15:38:21.085Z,4.6
2023-02-22T15:48:23.541Z,14.9
2023-02-22T15:58:23.998Z,12.9
2023-02-22T16:08:25.877Z,12.5
2023-02-22T16:18:29.224Z,3.1
2023-02-22T16:28:31.691Z,4.4
2023-02-22T16:38:35.092Z,2.9
2023-02-22T16:48:37.898Z,11.2
2023-02-22T16:58:40.204Z,11.9
2023-02-22T17:08:42.067Z,3.3
2023-02-22T17:18:42.640Z,11.5
2023-02-22T17:28:43.428Z,2.4
2023-02-22T17:38:45.958Z,2.6
2023-02-22T17:48:45.675Z,10.9
2023-02-22T17:58:47.247Z,2.4
2023-02-22T18:08:47.932Z,3.2
2023-02-22T18:18:49.450Z,10.3
2023-02-22T18:28:48.860Z,10.1
2023-02-22T18:38:48.673Z,9.9
2023-02-22T18:48:49.282Z,9.6
2023-02-22T18:58:49.464Z,9.4
2023-02-22T19:08:50.187Z,9.6
2023-02-22T19:18:50.319Z,9.3
2023-02-22T19:28:51.271Z,9
2023-02-22T19:38:51.768Z,8.8
2023-02-22T19:48:52.107Z,8.4
2023-02-22T19:58:54.302Z,0.4
2023-02-22T20:08:55.105Z,0.6
2023-02-22T20:18:55.556Z,8.5
2023-02-22T20:28:55.753Z,8.1
2023-02-22T20:38:56.186Z,7.3
2023-02-22T20:48:57.420Z,6.5
2023-02-22T20:58:58.378Z,0.3
2023-02-22T21:08:07.829Z,5.8
2023-02-22T21:18:09.008Z,5.8
2023-02-22T21:28:09.642Z,5.3
2023-02-22T21:38:10.226Z,5.3
2023-02-22T21:48:11.071Z,5.5
2023-02-22T21:58:11.702Z,5.3
2023-02-22T22:08:13.263Z,5.1
2023-02-22T22:18:15.265Z,4.9
2023-02-22T22:28:16.268Z,4.6
2023-02-22T22:38:18.421Z,4.5
2023-02-22T22:48:20.059Z,5.1
2023-02-22T22:58:21.370Z,4.4
2023-02-22T23:08:21.819Z,4
2023-02-22T23:18:22.025Z,4.2
2023-02-22T23:28:22.422Z,3.7
2023-02-22T23:38:23.052Z,4.3
2023-02-22T23:48:23.874Z,3.9
2023-02-22T23:58:24.408Z,3.9
